Dubuque Regional Airport
KDBQ : now visible

Airfield :











YOU CAN JOIN US ON...

 
LOGIN :

Register | Disclaimer

   EN    FR    IT 

 









Legend :    VFR   Marginal VFR   IFR   Intensive IFR   Very Intensive IFR
Visi :
Ceiling :
>= 8 km
>= 3000ft
5 to 8 km
1000 to 3000 ft
1500m to 5 km
500 to 1000 ft
800 to 1500m
200 to 500 ft
< 800m
< 200 ft
Symbols :   Thunderstorms  Fog  Heavy snow  Heavy precipitations  Wind > 20 kt






- Airport Elevation : 1077 ft
- IATA code : DBQ


KDBQ - Dubuque Regional

CURRENT METAR :
  • 261653Z 35014G21KT 10SM FEW023 M03/M08 A3017 RMK AO2 SLP230 T10331078

EXPIRED METARs :
  • 261553Z 35015KT 10SM FEW021 BKN110 M04/M08 A3017 RMK AO2 SLP232 T10391078
  • 261453Z 01014KT 10SM CLR M04/M08 A3017 RMK AO2 SLP231 T10391083 50004

TAF KDBQ
Valid from the 26 at 15:00 until the 27 at 12:00 UTC


261459Z 2615/2712 35014G24KT P6SM SCT030 OVC035
FM270600 31010KT P6SM BKN050



MET'MAP, your aeronautical weather chart ! - Copyright ORBIFLY December 2007 - Disclaimer

ORBIFLY MET'MAP TEAM :

Programming & Development : Alexandra Zaïnal
Concept & original design : Baudouin d'Aumeries
Assistance for programming : Marc-Olivier Méhu
Technical & hardware support : Manuel Goepfert

Contact : metmap@orbifly.com




SOURCES & CREDITS :

   NOAA       Earth
Advisory